Data for 09/25/2010

Time Sea-Level Adjusted Pressure Absolute Pressure Temperature Relative Humidity Dew Point   
(mb) (inHg) (mb) (inHg) (C) (F) (%) (C) (F)
00:05 1028 30.36 857 25.31 9 48.1 55 0.5 33
00:10 1028 30.36 857 25.31 8.9 48 56 0.5 33
00:15 1028 30.36 857 25.31 8.6 47.5 57 0.6 33.1
00:20 1028 30.36 857 25.31 8.4 47.1 57 0.4 32.8
00:25 1028 30.36 857 25.31 8.5 47.3 59 0.8 33.5
00:30 1028 30.36 857 25.31 8.5 47.3 57 0.5 32.9
00:35 1028 30.36 857 25.31 8.7 47.6 58 1 33.8
00:40 1028 30.36 857 25.31 7.8 46 62 1.1 33.9
00:45 1028 30.36 857 25.31 7.5 45.6 61 0.5 33
00:50 1028 30.36 857 25.31 7.7 45.9 60 0.4 32.8
00:55 1028 30.36 857 25.31 7.8 46.1 60 0.6 33
01:00 1028 30.36 857 25.31 8 46.4 58 0.2 32.4
01:05 1028 30.36 857 25.31 8.4 47.1 56 0.2 32.3
01:10 1028 30.36 857 25.31 8.5 47.4 55 0.1 32.2
01:15 1028 30.36 857 25.31 8.8 47.8 55 0.2 32.3
01:20 1028 30.36 857 25.31 8.7 47.7 56 0.3 32.6
01:25 1028 30.36 857 25.31 8.5 47.3 57 0.5 33
01:30 1028 30.36 857 25.31 8.2 46.7 58 0.4 32.7
01:35 1028 30.36 857 25.31 8.3 47 56 0.1 32.2
01:40 1028 30.36 857 25.31 8.4 47.2 55 -0 31.9
01:45 1028 30.36 857 25.31 8.7 47.7 54 0 32
01:50 1028 30.36 857 25.31 9.1 48.3 52 -0.1 31.8
01:55 1028 30.36 857 25.31 9.4 48.9 52 0.1 32.1
02:00 1028 30.36 857 25.31 9.4 48.9 53 0.3 32.6
02:05 1028 30.36 857 25.31 9.3 48.7 53 0.2 32.4
02:10 1028 30.36 857 25.31 9.1 48.4 53 0 32.1
02:15 1027 30.33 857 25.31 9.3 48.8 51 -0.4 31.4
02:20 1027 30.33 857 25.31 9.6 49.3 51 0.1 32.1
02:25 1028 30.36 857 25.31 9.8 49.6 50 -0 32
02:30 1028 30.36 857 25.31 9.6 49.3 52 0.2 32.3
02:35 1028 30.36 857 25.31 9.1 48.4 55 0.5 32.9
02:40 1028 30.36 857 25.31 8.4 47.2 58 0.6 33
02:45 1028 30.36 857 25.31 8.1 46.6 57 0.1 32.2
02:50 1028 30.36 857 25.31 8.5 47.3 56 0.2 32.4
02:55 1028 30.36 857 25.31 8.9 48 55 0.4 32.7
03:00 1028 30.36 857 25.31 8.4 47.2 58 0.6 33
03:05 1028 30.36 857 25.31 8.3 46.9 56 -0 32
03:10 1028 30.36 857 25.31 8.7 47.7 54 0.1 32.2
03:15 1028 30.36 857 25.31 8.9 47.9 55 0.5 32.8
03:20 1028 30.36 857 25.31 8.5 47.3 55 -0.1 31.8
03:25 1028 30.36 857 25.31 9 48.2 54 0.3 32.5
03:30 1028 30.36 857 25.31 8.7 47.7 56 0.5 32.9
03:35 1028 30.36 857 25.31 8.3 47 59 0.7 33.3
03:40 1028 30.36 857 25.31 7.8 46.1 60 0.5 32.9
03:45 1028 30.36 857 25.31 7.7 45.9 59 0.1 32.3
03:50 1028 30.36 857 25.31 7.6 45.6 60 0.3 32.6
03:55 1028 30.36 857 25.31 7.8 46.1 58 0.1 32.1
04:00 1027 30.33 857 25.31 8.2 46.7 58 0.3 32.6
04:05 1028 30.36 857 25.31 8.2 46.8 57 0.3 32.5
04:10 1027 30.33 857 25.31 8.5 47.2 55 -0.1 31.8
04:15 1027 30.33 857 25.31 8.8 47.8 54 0 32
04:20 1027 30.33 857 25.31 8.8 47.8 53 -0.2 31.6
04:25 1027 30.33 857 25.31 9.1 48.4 52 -0.1 31.8
04:30 1027 30.33 857 25.31 9.1 48.3 52 -0.2 31.7
04:35 1028 30.36 857 25.31 8.9 48.1 54 0.2 32.4
04:40 1028 30.36 857 25.31 8.6 47.5 55 0.2 32.4
04:45 1028 30.36 857 25.31 8.5 47.3 56 0.2 32.4
04:50 1028 30.36 857 25.31 8.5 47.3 56 0.3 32.5
04:55 1028 30.36 857 25.31 8.5 47.3 56 0.3 32.5
05:00 1028 30.36 857 25.31 8.6 47.5 55 0.2 32.4
05:05 1028 30.36 857 25.31 8.7 47.6 56 0.4 32.7
05:10 1028 30.36 857 25.31 8.5 47.2 57 0.3 32.6
05:15 1028 30.36 857 25.31 8.3 46.9 57 0.3 32.5
05:20 1028 30.36 857 25.31 8.4 47 56 0.2 32.4
05:25 1028 30.36 857 25.31 8.8 47.8 54 0.1 32.1
05:30 1028 30.36 857 25.31 9.1 48.3 54 0.4 32.7
05:35 1028 30.36 857 25.31 8.8 47.9 57 0.7 33.3
05:40 1028 30.36 857 25.31 8.3 47 59 0.7 33.3
05:45 1028 30.36 857 25.31 8.2 46.7 58 0.4 32.7
05:50 1028 30.36 857 25.31 8.3 46.9 57 0.3 32.5
05:55 1028 30.36 857 25.31 8.4 47.1 58 0.5 33
06:00 1028 30.36 857 25.31 8.1 46.5 60 0.7 33.3
06:05 1028 30.36 857 25.31 7.7 45.9 59 0.2 32.3
06:10 1028 30.36 857 25.31 7.9 46.1 59 0.4 32.6
06:15 1028 30.36 857 25.31 7.5 45.5 60 0.3 32.6
06:20 1028 30.36 857 25.31 7.5 45.6 59 0.2 32.3
06:25 1028 30.36 857 25.31 7.6 45.8 59 0.1 32.2
06:30 1028 30.36 857 25.31 7.6 45.6 60 0.4 32.8
06:35 1028 30.36 857 25.31 7.4 45.3 59 -0.1 31.8
06:40 1028 30.36 857 25.31 7.8 46.1 57 -0.1 31.8
06:45 1028 30.36 857 25.31 7.9 46.2 56 -0.2 31.6
06:50 1028 30.36 857 25.31 8.2 46.7 56 -0.1 31.8
06:55 1027 30.33 857 25.31 8.1 46.6 59 0.6 33.1
07:00 1027 30.33 857 25.31 7.8 46.1 59 0.3 32.5
07:05 1027 30.33 857 25.31 7.9 46.2 56 -0.3 31.4
07:10 1027 30.33 857 25.31 8.3 46.9 57 0.3 32.6
07:15 1028 30.36 857 25.31 8.1 46.6 55 -0.3 31.4
07:20 1028 30.36 857 25.31 8.7 47.6 56 0.4 32.7
07:25 1028 30.36 857 25.31 8.2 46.8 59 0.7 33.3
07:30 1028 30.36 857 25.31 7.8 46 59 0.3 32.5
07:35 1028 30.36 857 25.31 8.3 46.9 57 0.2 32.4
07:40 1028 30.36 857 25.31 8.7 47.6 57 0.6 33.1
07:45 1028 30.36 857 25.31 8.4 47.1 59 0.9 33.6
07:50 1028 30.36 857 25.31 8.3 46.9 59 0.7 33.2
07:55 1028 30.36 857 25.31 8.6 47.5 57 0.7 33.2
08:00 1028 30.36 857 25.31 9.1 48.4 57 1 33.8
08:05 1028 30.36 857 25.31 9.2 48.5 57 1.3 34.3
08:10 1028 30.36 857 25.31 8.9 48 59 1.3 34.3
08:15 1028 30.36 857 25.31 9.2 48.6 58 1.4 34.5
08:20 1028 30.36 858 25.34 9.7 49.5 58 1.8 35.2
08:25 1028 30.36 858 25.34 10.1 50.1 56 1.8 35.2
08:30 1028 30.36 858 25.34 10.6 51 54 1.6 34.8
08:35 1029 30.39 858 25.34 11.3 52.4 51 1.7 35
08:40 1029 30.39 858 25.34 12 53.7 51 2.4 36.2
08:45 1029 30.39 858 25.34 12 53.6 53 2.7 36.8
08:50 1029 30.39 858 25.34 11.9 53.4 51 2 35.7
08:55 1029 30.39 858 25.34 12.4 54.2 50 2.2 35.9
09:00 1029 30.39 858 25.34 12.2 53.9 51 2.3 36.2
09:05 1029 30.39 858 25.34 11.7 53 51 1.8 35.3
09:10 1029 30.39 858 25.34 11.6 52.9 53 2.3 36.2
09:15 1029 30.39 858 25.34 12 53.6 49 1.7 35
09:20 1029 30.39 858 25.34 12.4 54.3 46 1.3 34.3
09:25 1029 30.39 858 25.34 12.5 54.6 48 1.8 35.3
09:30 1029 30.39 858 25.34 12.8 55 47 1.7 35.1
09:35 1029 30.39 858 25.34 13.2 55.7 46 1.9 35.4
09:40 1029 30.39 858 25.34 13.6 56.4 42 1 33.8
09:45 1029 30.39 858 25.34 13.8 56.9 43 1.7 35
09:50 1028 30.36 858 25.34 14.2 57.6 39 0.6 33.1
09:55 1028 30.36 858 25.34 14.6 58.3 39 0.8 33.5
10:00 1028 30.36 858 25.34 14.8 58.7 40 1.4 34.6
10:05 1028 30.36 858 25.34 15.2 59.4 39 1.5 34.6
10:10 1028 30.36 858 25.34 15.3 59.6 39 1.7 35.1
10:15 1028 30.36 858 25.34 15.4 59.8 39 1.8 35.2
10:20 1028 30.36 858 25.34 15.7 60.2 38 1.4 34.5
10:25 1028 30.36 857 25.31 16 60.8 36 1 33.8
10:30 1028 30.36 857 25.31 16.5 61.6 34 0.5 32.9
10:35 1028 30.36 857 25.31 16.7 62 34 0.8 33.4
10:40 1028 30.36 857 25.31 17.1 62.7 35 1.5 34.7
10:45 1028 30.36 857 25.31 17 62.6 36 1.9 35.4
10:50 1028 30.36 857 25.31 16.7 62.1 35 1.4 34.6
10:55 1028 30.36 857 25.31 17.7 63.8 34 1.6 34.8
11:00 1028 30.36 857 25.31 18.6 65.4 33 1.9 35.4
11:05 1028 30.36 857 25.31 18.4 65.2 32 1.8 35.2
11:10 1028 30.36 857 25.31 18.7 65.7 32 1.8 35.3
11:15 1028 30.36 857 25.31 18.3 65 32 1.5 34.8
11:20 1028 30.36 857 25.31 18.4 65.1 32 1.5 34.8
11:25 1028 30.36 857 25.31 19.5 67.1 31 1.9 35.4
11:30 1028 30.36 857 25.31 20.2 68.4 30 2.1 35.7
11:35 1028 30.36 857 25.31 20.5 68.9 29 2 35.7
11:40 1028 30.36 857 25.31 20.5 69 30 2.3 36.2
11:45 1028 30.36 857 25.31 21 69.8 29 2.6 36.7
11:50 1028 30.36 857 25.31 21.3 70.3 29 2.9 37.3
11:55 1028 30.36 857 25.31 20.7 69.3 29 2.2 35.9
12:00 1028 30.36 857 25.31 20.9 69.6 29 2.4 36.3
12:05 1027 30.33 857 25.31 20.9 69.7 29 2.2 36
12:10 1027 30.33 857 25.31 21.4 70.5 27 1.8 35.2
12:15 1027 30.33 857 25.31 21.8 71.2 26 1.9 35.3
12:20 1027 30.33 857 25.31 21.5 70.6 27 2 35.6
12:25 1027 30.33 857 25.31 21.5 70.6 27 2.1 35.8
12:30 1027 30.33 857 25.31 21.7 71 27 2 35.5
12:35 1027 30.33 856 25.28 22.6 72.8 26 2.3 36.2
12:40 1027 30.33 856 25.28 22.5 72.5 27 2.7 36.9
12:45 1027 30.33 856 25.28 22.5 72.6 26 2.4 36.4
12:50 1027 30.33 856 25.28 22.5 72.5 27 2.7 36.9
12:55 1027 30.33 856 25.28 22.8 73 27 3.2 37.7
13:00 1027 30.33 856 25.28 22.2 72 28 2.9 37.3
13:05 1027 30.33 856 25.28 22.4 72.3 27 2.7 36.9
13:10 1027 30.33 856 25.28 22.8 73.1 26 2.5 36.5
13:15 1027 30.33 856 25.28 23.3 74 25 2.6 36.7
13:20 1027 30.33 856 25.28 23.7 74.7 25 2.7 36.9
13:25 1026 30.3 856 25.28 23.2 73.8 26 2.8 37.1
13:30 1026 30.3 856 25.28 23.1 73.5 26 2.5 36.6
13:35 1026 30.3 855 25.25 23.9 75 24 2.6 36.6
13:40 1026 30.3 855 25.25 24.3 75.7 25 3.5 38.2
13:45 1026 30.3 855 25.25 24.2 75.6 25 3.2 37.8
13:50 1026 30.3 855 25.25 24.2 75.5 27 4 39.3
13:55 1026 30.3 855 25.25 24.6 76.3 26 3.9 39
14:00 1026 30.3 855 25.25 24.3 75.8 26 3.8 38.9
14:05 1026 30.3 855 25.25 24.9 76.7 25 3.8 38.8
14:10 1026 30.3 855 25.25 25.3 77.6 25 3.9 39
14:15 1026 30.3 855 25.25 24.6 76.4 28 5.2 41.3
14:20 1025 30.27 855 25.25 24.7 76.5 25 3.8 38.8
14:25 1025 30.27 855 25.25 25.3 77.6 25 4.1 39.4
14:30 1025 30.27 854 25.22 25.2 77.3 26 4.8 40.6
14:35 1025 30.27 854 25.22 26 78.8 25 4.6 40.2
14:40 1025 30.27 854 25.22 27.1 80.8 23 4.4 39.9
14:45 1025 30.27 854 25.22 27.6 81.6 23 4.9 40.8
14:50 1025 30.27 854 25.22 26.9 80.5 24 4.7 40.5
14:55 1025 30.27 854 25.22 27.4 81.4 23 4.7 40.5
15:00 1025 30.27 854 25.22 27.7 81.9 22 4.3 39.7
15:05 1025 30.27 854 25.22 28.1 82.6 22 4.6 40.3
15:10 1025 30.27 854 25.22 27.9 82.3 23 4.9 40.8
15:15 1025 30.27 854 25.22 28 82.3 22 4.6 40.3
15:20 1024 30.24 854 25.22 28.2 82.8 22 4.5 40.1
15:25 1024 30.24 854 25.22 27.6 81.6 23 4.9 40.8
15:30 1024 30.24 853 25.19 27.6 81.6 23 4.8 40.7
15:35 1024 30.24 853 25.19 28.2 82.8 23 5.7 42.3
15:40 1024 30.24 853 25.19 28.8 83.8 20 3.7 38.6
15:45 1024 30.24 853 25.19 28.9 83.9 20 3.8 38.8
15:50 1024 30.24 853 25.19 28.8 83.8 20 4.2 39.5
15:55 1024 30.24 853 25.19 28.6 83.5 20 3.9 39
16:00 1024 30.24 853 25.19 28.8 83.8 18 2.8 37
16:05 1024 30.24 853 25.19 28.9 84.1 20 3.7 38.7
16:10 1024 30.24 853 25.19 28.8 83.8 20 3.6 38.5
16:15 1024 30.24 853 25.19 28.9 84.1 19 3.2 37.7
16:20 1024 30.24 853 25.19 29.2 84.5 19 3.7 38.6
16:25 1024 30.24 853 25.19 29.1 84.4 20 4 39.2
16:30 1024 30.24 853 25.19 29 84.2 19 3.6 38.5
16:35 1024 30.24 853 25.19 29.2 84.6 20 4.5 40.2
16:40 1024 30.24 853 25.19 29 84.2 20 4 39.2
16:45 1024 30.24 853 25.19 28.8 83.8 20 4 39.1
16:50 1023 30.21 853 25.19 29 84.3 22 5.7 42.2
16:55 1023 30.21 853 25.19 27.9 82.2 24 5.9 42.7
17:00 1023 30.21 853 25.19 27.8 82 24 5.4 41.8
17:05 1023 30.21 853 25.19 27.5 81.4 24 5.4 41.8
17:10 1023 30.21 853 25.19 27.2 80.9 24 5.4 41.7
17:15 1023 30.21 852 25.16 27.7 81.9 22 4.4 40
17:20 1023 30.21 852 25.16 28 82.4 24 5.6 42.2
17:25 1023 30.21 852 25.16 27.4 81.4 24 5.7 42.2
17:30 1023 30.21 852 25.16 27 80.5 24 4.8 40.6
17:35 1023 30.21 852 25.16 27.2 80.9 22 4 39.1
17:40 1023 30.21 852 25.16 27.2 80.9 23 4.7 40.4
17:45 1023 30.21 852 25.16 27.4 81.4 23 4.7 40.4
17:50 1023 30.21 852 25.16 27.3 81.1 22 4.2 39.6
17:55 1023 30.21 852 25.16 27.7 81.8 22 4.5 40
18:00 1023 30.21 852 25.16 27 80.6 24 5.1 41.2
18:05 1023 30.21 852 25.16 26.6 79.9 23 4.2 39.6
18:10 1023 30.21 852 25.16 26.7 80.1 24 4.6 40.3
18:15 1023 30.21 852 25.16 26.7 80 23 4.4 39.9
18:20 1023 30.21 852 25.16 26.5 79.7 23 4.2 39.5
18:25 1023 30.21 852 25.16 26.4 79.5 24 4.3 39.7
18:30 1023 30.21 852 25.16 26.3 79.4 25 5 40.9
18:35 1023 30.21 852 25.16 26 78.9 27 5.9 42.6
18:40 1023 30.21 852 25.16 25.4 77.8 30 6.8 44.2
18:45 1023 30.21 852 25.16 25.2 77.3 31 6.9 44.5
18:50 1023 30.21 852 25.16 25 77 27 4.7 40.5
18:55 1023 30.21 852 25.16 25.1 77.1 25 4.1 39.5
19:00 1023 30.21 852 25.16 25.1 77.2 31 6.9 44.5
19:05 1023 30.21 852 25.16 24.5 76 37 8.9 48
19:10 1023 30.21 852 25.16 23.6 74.5 39 9.2 48.6
19:15 1023 30.21 852 25.16 22.5 72.4 47 10.9 51.6
19:20 1022 30.18 852 25.16 21.5 70.7 50 10.8 51.4
19:25 1023 30.21 852 25.16 21 69.8 47 9.4 48.9
19:30 1022 30.18 852 25.16 20.3 68.6 46 8.4 47.2
19:35 1022 30.18 852 25.16 19.9 67.7 46 8.1 46.6
19:40 1022 30.18 852 25.16 19.5 67.1 46 7.7 45.8
19:45 1022 30.18 852 25.16 19.4 66.9 46 7.6 45.7
19:50 1022 30.18 851 25.13 19.3 66.7 46 7.4 45.3
19:55 1022 30.18 852 25.16 19.1 66.3 47 7.5 45.5
20:00 1022 30.18 852 25.16 18.9 65.9 47 7.6 45.6
20:05 1022 30.18 852 25.16 18.5 65.2 50 7.9 46.2
20:10 1022 30.18 852 25.16 18.2 64.7 51 8.1 46.6
20:15 1022 30.18 852 25.16 17.8 64.1 49 7.2 44.9
20:20 1022 30.18 852 25.16 18 64.4 46 6.3 43.4
20:25 1022 30.18 851 25.13 18.2 64.7 46 6.5 43.6
20:30 1022 30.18 852 25.16 18 64.4 46 6.3 43.4
20:35 1022 30.18 852 25.16 18 64.4 44 5.8 42.4
20:40 1022 30.18 852 25.16 18.3 64.9 43 5.5 42
20:45 1022 30.18 852 25.16 18 64.5 44 5.6 42.1
20:50 1022 30.18 852 25.16 18 64.3 44 5.5 41.9
20:55 1022 30.18 852 25.16 18.3 64.9 40 4.5 40.2
21:00 1023 30.21 852 25.16 18.8 65.9 39 4.9 40.7
21:05 1023 30.21 852 25.16 18.9 66.1 38 4.4 40
21:10 1023 30.21 852 25.16 18.8 65.9 41 5.4 41.7
21:15 1023 30.21 852 25.16 18.5 65.4 38 4.1 39.4
21:20 1023 30.21 852 25.16 19 66.3 38 4.5 40.2
21:25 1023 30.21 852 25.16 18.7 65.6 41 5.1 41.2
21:30 1023 30.21 852 25.16 17.9 64.1 43 5.3 41.5
21:35 1023 30.21 852 25.16 17.8 64 44 5.3 41.6
21:40 1023 30.21 852 25.16 17.6 63.6 44 5.2 41.3
21:45 1023 30.21 852 25.16 17.9 64.2 41 4.6 40.3
21:50 1023 30.21 852 25.16 18.1 64.5 43 5.3 41.6
21:55 1023 30.21 852 25.16 17.7 63.9 43 5.1 41.3
22:00 1023 30.21 852 25.16 17.6 63.7 42 4.8 40.6
22:05 1023 30.21 852 25.16 17.6 63.6 43 4.9 40.7
22:10 1023 30.21 852 25.16 17.5 63.6 42 4.5 40.1
22:15 1023 30.21 852 25.16 17.4 63.3 43 4.7 40.5
22:20 1023 30.21 852 25.16 17.3 63.1 43 4.8 40.7
22:25 1023 30.21 852 25.16 17.1 62.8 44 4.8 40.7
22:30 1023 30.21 852 25.16 17.1 62.7 44 4.7 40.5
22:35 1023 30.21 852 25.16 17.2 62.9 44 4.9 40.8
22:40 1023 30.21 852 25.16 17.2 62.9 44 4.8 40.6
22:45 1023 30.21 852 25.16 17.1 62.7 43 4.5 40.1
22:50 1023 30.21 852 25.16 17 62.6 42 4.2 39.6
22:55 1023 30.21 852 25.16 17.1 62.8 42 4.1 39.4
23:00 1023 30.21 852 25.16 17.1 62.8 42 4.1 39.5
23:05 1023 30.21 852 25.16 17 62.5 42 4.2 39.5
23:10 1022 30.18 852 25.16 17.1 62.8 40 3.4 38.1
23:15 1022 30.18 852 25.16 17.2 63 41 3.9 39
23:20 1022 30.18 852 25.16 16.6 61.9 43 4.1 39.4
23:25 1022 30.18 852 25.16 16.1 61 44 3.9 39
23:30 1022 30.18 852 25.16 16.2 61.2 41 3 37.4
23:35 1022 30.18 852 25.16 16.5 61.7 41 3.4 38.1
23:40 1022 30.18 852 25.16 16.3 61.3 42 3.3 38
23:45 1022 30.18 852 25.16 16 60.7 43 3.4 38.2
23:50 1022 30.18 852 25.16 16 60.8 43 3.5 38.3
23:55 1022 30.18 852 25.16 15.9 60.6 43 3.4 38.1
24:00 1022 30.18 852 25.16 15.9 60.6 43 3.5 38.3